Observations for FAIRFORD RAF, United Kingdom (EGVA)

EGVA 191856Z AUTO 25005KT 9999 CLR 07/05 A2961 RMK AO2 SLP032 T00680051 $   
EGVA 191756Z AUTO 25005KT 9999 FEW065 09/07 A2960 RMK AO2 SLP029 T00870067 10141 20086 52018 $  
EGVA 191656Z AUTO 25007KT 9999 BKN065 11/07 A2959 RMK AO2 SLP025 T01080069 $
EGVA 191556Z AUTO 25007KT 9999 CLR 12/08 A2957 RMK AO2 SLP018 T01220077 $   
EGVA 191511Z AUTO 25010KT 9999 BKN030 13/08 A2956 RMK AO2 SLP014 $
EGVA 191516Z AUTO 25010KT 9999 SCT030 13/07 A2956 RMK AO2 SLP014 $
EGVA 191456Z AUTO 24011KT 9999 SCT028 BKN065 14/07 A2955 RMK AO2 SLP010 T01380073 52012 $   
EGVA 191356Z AUTO 24010KT 9999 FEW031 SCT060 14/08 A2954 RMK AO2 SLP007 T01370075 $ 
EGVA 191336Z AUTO 24010KT 9999 FEW027 SCT042 SCT050 12/07 A2954 RMK AO2 SLP007 $
EGVA 191256Z AUTO 26012KT 9999 FEW027 BKN041 13/07 A2953 RMK AO2 SLP004 T01270074 $ 
EGVA 191206Z AUTO 27010KT 9999 FEW030 BKN038 14/08 A2952 RMK AO2 SLP000 $
EGVA 191246Z AUTO 26011KT 9999 FEW027 SCT035 13/07 A2953 RMK AO2 SLP004 $
EGVA 191251Z AUTO 27009KT 9999 FEW027 BKN039 13/07 A2953 RMK AO2 SLP004 $
EGVA 191156Z AUTO 26011KT 9999 FEW022 SCT032 12/08 A2952 RMK AO2 SLP000 70005 T01240077 10131 20068 52010 $ 
EGVA 191141Z AUTO 24011KT 9999 SCT022 BKN030 BKN036 13/08 A2952 RMK AO2 SLP000 $
EGVA 191056Z AUTO 25011KT 9999 SCT019 BKN025 13/08 A2951 RMK AO2 SLP997 T01270080 $ 
EGVA 191026Z AUTO 25013KT 9999 BKN016 OVC025 12/08 A2951 RMK AO2 SLP997 $
EGVA 191021Z AUTO 25013KT 9999 BKN014 BKN020 OVC025 12/09 A2951 RMK AO2 SLP997 $
EGVA 191046Z AUTO 25012KT 9999 SCT019 BKN027 12/08 A2951 RMK AO2 CIG 018V027 SLP997 $
EGVA 190956Z AUTO 23009KT 9999 BKN014 BKN019 12/09 A2950 RMK AO2 CIG 014V019 BKN014 V SCT CIG 012 RWY09 SLP993 T01160092 $  
EGVA 190856Z AUTO 25010KT 9999 CLR 10/09 A2949 RMK AO2 SLP990 T01010085 51014 $ 
EGVA 190756Z AUTO 25007KT 9999 CLR 08/08 A2948 RMK AO2 SLP987 T00840076 $   
EGVA 190656Z AUTO 22007KT 9999 CLR 07/07 A2947 RMK AO2 SLP984 T00710065 $   
EGVA 190556Z AUTO 23006KT 9999 CLR 07/06 A2945 RMK AO2 SLP977 T00710064 10094 20071 53003 $ 
EGVA 190456Z AUTO 22007KT 9999 CLR 08/07 A2944 RMK AO2 SLP973 T00750066 $   
EGVA 190356Z AUTO 21006KT 9999 CLR 07/07 A2944 RMK AO2 SLP973 T00720065 $   
EGVA 190256Z AUTO 21004KT 9999 CLR 08/07 A2944 RMK AO2 SLP973 T00760065 57004 $ 
EGVA 190156Z AUTO 21006KT 9999 CLR 08/07 A2944 RMK AO2 SLP974 T00800069 $   
EGVA 190056Z AUTO 22007KT 9999 CLR 09/07 A2944 RMK AO2 SLP973 T00890073 $   
EGVA 182356Z AUTO 22008KT 9999 CLR 09/07 A2945 RMK AO2 SLP976 60000 T00940073 10110 20093 401390076 55000 $ 
EGVA 182256Z AUTO 22010KT 9999 CLR 10/07 A2944 RMK AO2 SLP973 T00950073 $   
EGVA 182156Z AUTO 21009KT 9999 CLR 10/08 A2945 RMK AO2 SLP976 T00970075 $   
EGVA 182056Z AUTO 21010KT 9999 CLR 10/08 A2945 RMK AO2 RAB19E29DZB29E32RAB32E37 SLP977 P0000 60000 T01030079 50001 $
EGVA 182037Z AUTO 21012KT 9999 CLR 11/08 A2945 RMK AO2 RAB19E29DZB29E32RAB32E37SLP977 $
EGVA 182019Z AUTO 21012KT 9999 -RA FEW033 11/08 A2945 RMK AO2 RAB19 SLP977 $
EGVA 181956Z AUTO 21011KT 9999 FEW034 11/08 A2945 RMK AO2 SLP977 T01090081 $